createdAt,value
2023-03-30T00:00:49.356Z,94197.03
2023-03-30T00:01:46.018Z,94200.72
2023-03-30T00:02:44.719Z,94199.03
2023-03-30T00:03:45.711Z,94195.81
2023-03-30T00:04:43.081Z,94192.34
2023-03-30T00:05:40.009Z,94194.84
2023-03-30T00:06:39.269Z,94198.38
2023-03-30T00:07:38.446Z,94195.88
2023-03-30T00:08:35.419Z,94134.84
2023-03-30T00:09:33.204Z,94194.84
2023-03-30T00:10:29.806Z,94193.03
2023-03-30T00:11:27.241Z,94201.56
2023-03-30T00:12:24.442Z,94194.75
2023-03-30T00:13:21.139Z,94163.13
2023-03-30T00:14:19.720Z,94164.03
2023-03-30T00:15:19.428Z,94191.56
2023-03-30T00:16:17.523Z,94100.03
2023-03-30T00:17:14.170Z,94185.91
2023-03-30T00:18:10.917Z,94172.25
2023-03-30T00:19:07.754Z,94181.91
2023-03-30T00:20:08.834Z,94186.41
2023-03-30T00:21:07.646Z,94189.28
2023-03-30T00:22:09.388Z,94183.94
2023-03-30T00:23:06.243Z,94189.19
2023-03-30T00:24:02.828Z,94188.69
2023-03-30T00:24:59.673Z,94193.81
2023-03-30T00:25:56.711Z,94180.44
2023-03-30T00:26:53.409Z,94191.97
2023-03-30T00:27:50.023Z,94208.50
2023-03-30T00:28:46.756Z,94194.84
2023-03-30T00:29:43.378Z,94190.28
2023-03-30T00:30:40.046Z,94191.69
2023-03-30T00:31:36.680Z,94157.22
2023-03-30T00:32:34.573Z,94194.59
2023-03-30T00:33:44.625Z,94193.19
2023-03-30T00:34:42.774Z,94197.91
2023-03-30T00:35:39.763Z,94156.16
2023-03-30T00:36:37.288Z,94194.06
2023-03-30T00:37:37.395Z,94197.06
2023-03-30T00:38:34.202Z,94197.94
2023-03-30T00:39:30.795Z,94185.44
2023-03-30T00:40:28.600Z,94194.47
2023-03-30T00:41:25.371Z,94053.44
2023-03-30T00:42:22.129Z,94196.19
2023-03-30T00:43:19.514Z,94144.28
2023-03-30T00:44:53.400Z,94184.66
2023-03-30T00:45:50.956Z,94181.16
2023-03-30T00:46:47.554Z,94181.09
2023-03-30T00:48:11.968Z,94182.72
2023-03-30T00:49:10.796Z,94190.84
2023-03-30T00:50:09.572Z,94189.50
2023-03-30T00:51:10.836Z,94187.84
2023-03-30T00:52:10.028Z,94187.38
2023-03-30T00:53:28.677Z,94192.84
2023-03-30T00:54:25.414Z,94188.91
2023-03-30T00:55:24.683Z,94189.16
2023-03-30T00:56:27.162Z,94184.94
2023-03-30T00:57:24.853Z,94181.16
2023-03-30T00:58:24.103Z,94191.69
2023-03-30T00:59:20.724Z,94189.34
2023-03-30T01:00:18.780Z,94190.25
2023-03-30T01:01:25.851Z,94190.84
2023-03-30T01:02:23.445Z,94155.53
2023-03-30T01:03:43.789Z,94174.81
2023-03-30T01:04:41.234Z,94184.94
2023-03-30T01:05:41.455Z,94193.00
2023-03-30T01:06:40.958Z,94179.66
2023-03-30T01:07:39.759Z,94187.38
2023-03-30T01:08:37.438Z,94188.84
2023-03-30T01:09:34.037Z,94189.84
2023-03-30T01:10:30.753Z,94182.94
2023-03-30T01:11:27.859Z,94195.56
2023-03-30T01:12:24.525Z,94193.97
2023-03-30T01:13:21.374Z,94188.00
2023-03-30T01:14:18.700Z,94185.38
2023-03-30T01:15:16.433Z,94179.81
2023-03-30T01:16:30.330Z,94186.06
2023-03-30T01:17:37.175Z,94179.31
2023-03-30T01:18:50.394Z,94188.47
2023-03-30T01:20:16.078Z,94182.44
2023-03-30T01:21:24.079Z,94191.00
2023-03-30T01:22:58.931Z,94189.94
2023-03-30T01:24:20.820Z,94184.59
2023-03-30T01:25:56.467Z,94186.72
2023-03-30T01:27:01.136Z,94192.41
2023-03-30T01:28:06.793Z,94191.91
2023-03-30T01:29:29.463Z,94195.75
2023-03-30T01:31:01.287Z,94194.19
2023-03-30T01:32:03.715Z,94193.81
2023-03-30T01:33:22.843Z,94197.97
2023-03-30T01:34:48.110Z,94173.69
2023-03-30T01:36:00.184Z,94205.88
2023-03-30T01:37:06.339Z,94206.41
2023-03-30T01:38:24.908Z,94197.81
2023-03-30T01:39:47.670Z,94203.94
2023-03-30T01:41:30.021Z,94198.03
2023-03-30T01:43:01.717Z,94221.09
2023-03-30T01:44:12.212Z,94198.16
2023-03-30T01:45:45.903Z,94201.94
2023-03-30T01:46:51.099Z,94201.88
2023-03-30T01:47:50.583Z,94202.44
2023-03-30T01:48:59.552Z,94199.53
2023-03-30T01:50:03.008Z,94198.16
2023-03-30T01:51:05.323Z,94201.50
2023-03-30T01:52:14.334Z,94200.16
2023-03-30T01:53:25.860Z,94197.88
2023-03-30T01:54:29.854Z,94198.13
2023-03-30T01:55:34.885Z,94156.75
2023-03-30T01:56:43.896Z,94202.22
2023-03-30T01:57:46.705Z,94197.84
2023-03-30T01:58:55.162Z,94196.75
2023-03-30T02:00:14.949Z,94151.19
2023-03-30T02:01:17.512Z,94201.53
2023-03-30T02:02:15.711Z,94195.31
2023-03-30T02:03:21.678Z,94200.97
2023-03-30T02:04:23.454Z,94202.66
2023-03-30T02:05:23.089Z,94181.59
2023-03-30T02:06:27.012Z,94196.38
2023-03-30T02:07:28.406Z,94179.22
2023-03-30T02:08:30.857Z,94190.47
2023-03-30T02:09:27.876Z,94196.66
2023-03-30T02:10:29.648Z,94187.47
2023-03-30T02:11:29.280Z,94188.13
2023-03-30T02:12:30.140Z,94171.06
2023-03-30T02:13:30.540Z,94126.69
2023-03-30T02:14:31.225Z,94195.09
2023-03-30T02:15:34.822Z,94133.47
2023-03-30T02:16:38.064Z,94190.47
2023-03-30T02:17:36.028Z,94198.91
2023-03-30T02:18:33.053Z,94198.81
2023-03-30T02:19:30.627Z,94201.00
2023-03-30T02:20:28.994Z,94200.03
2023-03-30T02:21:27.215Z,94196.44
2023-03-30T02:22:25.083Z,94122.09
2023-03-30T02:23:24.780Z,94179.53
2023-03-30T02:24:27.089Z,94188.94
2023-03-30T02:25:24.585Z,94190.09
2023-03-30T02:26:22.982Z,94187.47
2023-03-30T02:27:21.558Z,94187.44
2023-03-30T02:28:18.566Z,94175.47
2023-03-30T02:29:16.013Z,94156.09
2023-03-30T02:30:13.063Z,94194.13
2023-03-30T02:31:15.684Z,94199.25
2023-03-30T02:32:24.443Z,94189.31
2023-03-30T02:33:33.835Z,94174.31
2023-03-30T02:35:01.518Z,94189.34
2023-03-30T02:36:15.968Z,94193.34
2023-03-30T02:37:21.485Z,94192.06
2023-03-30T02:38:44.061Z,94192.94
2023-03-30T02:40:12.783Z,94191.94
2023-03-30T02:41:37.802Z,94197.34
2023-03-30T02:43:14.640Z,94194.47
2023-03-30T02:44:23.078Z,94202.06
2023-03-30T02:45:38.194Z,94202.56
2023-03-30T02:46:43.778Z,94199.91
2023-03-30T02:48:12.481Z,94197.22
2023-03-30T02:49:27.290Z,94201.84
2023-03-30T02:50:38.856Z,94195.28
2023-03-30T02:51:50.204Z,94194.88
2023-03-30T02:53:04.983Z,94195.56
2023-03-30T02:54:09.543Z,94199.66
2023-03-30T02:55:18.128Z,94198.25
2023-03-30T02:56:42.619Z,94195.97
2023-03-30T02:57:48.799Z,94194.13
2023-03-30T02:58:54.132Z,94194.44
2023-03-30T03:00:09.001Z,94203.94
2023-03-30T03:01:24.116Z,94196.72
2023-03-30T03:02:30.509Z,94200.28
2023-03-30T03:03:32.927Z,94203.94
2023-03-30T03:04:29.866Z,94206.69
2023-03-30T03:05:27.674Z,94202.47
2023-03-30T03:06:25.928Z,94201.88
2023-03-30T03:07:24.771Z,94208.66
2023-03-30T03:08:24.625Z,94205.31
2023-03-30T03:09:25.064Z,94210.25
2023-03-30T03:10:21.942Z,94208.72
2023-03-30T03:11:18.576Z,94206.09
2023-03-30T03:12:15.438Z,94211.97
2023-03-30T03:13:12.942Z,94213.78
2023-03-30T03:14:09.636Z,94217.50
2023-03-30T03:15:06.722Z,94215.97
2023-03-30T03:16:11.028Z,94212.13
2023-03-30T03:17:07.669Z,94216.13
2023-03-30T03:18:04.486Z,94226.66
2023-03-30T03:19:01.552Z,94217.19
2023-03-30T03:19:58.260Z,94221.41
2023-03-30T03:20:54.810Z,94218.13
2023-03-30T03:21:51.824Z,94217.81
2023-03-30T03:22:48.420Z,94211.25
2023-03-30T03:23:48.342Z,94211.88
2023-03-30T03:24:45.079Z,94208.66
2023-03-30T03:25:41.679Z,94204.94
2023-03-30T03:26:38.772Z,94206.44
2023-03-30T03:27:35.647Z,94208.06
2023-03-30T03:28:32.792Z,94218.53
2023-03-30T03:29:29.464Z,94192.25
2023-03-30T03:30:26.207Z,94213.69
2023-03-30T03:31:24.447Z,94236.28
2023-03-30T03:32:21.111Z,94174.78
2023-03-30T03:33:20.284Z,94209.75
2023-03-30T03:34:18.171Z,94169.00
2023-03-30T03:35:14.926Z,94209.44
2023-03-30T03:36:12.344Z,94214.03
2023-03-30T03:37:09.001Z,94217.16
2023-03-30T03:38:07.838Z,94215.81
2023-03-30T03:39:04.560Z,94216.88
2023-03-30T03:40:01.257Z,94216.25
2023-03-30T03:40:59.365Z,94216.94
2023-03-30T03:41:56.101Z,94224.44
2023-03-30T03:42:52.719Z,94222.63
2023-03-30T03:43:49.554Z,94206.28
2023-03-30T03:44:46.138Z,94222.47
2023-03-30T03:45:42.779Z,94223.66
2023-03-30T03:46:39.434Z,94219.97
2023-03-30T03:47:36.291Z,94221.50
2023-03-30T03:48:33.022Z,94226.94
2023-03-30T03:49:29.590Z,94228.59
2023-03-30T03:50:26.301Z,94228.66
2023-03-30T03:51:23.051Z,94197.91
2023-03-30T03:52:19.664Z,94234.00
2023-03-30T03:53:16.308Z,94216.53
2023-03-30T03:54:13.049Z,94197.66
2023-03-30T03:55:09.817Z,94224.25
2023-03-30T03:56:07.523Z,94175.22
2023-03-30T03:57:05.751Z,94219.31
2023-03-30T03:58:07.471Z,94239.00
2023-03-30T03:59:04.791Z,94222.41
2023-03-30T04:00:01.632Z,94228.13
2023-03-30T04:01:00.091Z,94235.97
2023-03-30T04:01:56.874Z,94209.44
2023-03-30T04:02:53.568Z,94232.66
2023-03-30T04:03:50.283Z,94233.78
2023-03-30T04:04:46.956Z,94222.69
2023-03-30T04:05:44.003Z,94225.31
2023-03-30T04:06:40.651Z,94223.53
2023-03-30T04:07:37.688Z,94223.03
2023-03-30T04:08:34.884Z,94220.41
2023-03-30T04:09:31.680Z,94229.63
2023-03-30T04:10:28.240Z,94175.53
2023-03-30T04:11:24.914Z,94215.94
2023-03-30T04:12:21.595Z,94217.72
2023-03-30T04:13:18.281Z,94111.59
2023-03-30T04:14:15.514Z,94231.81
2023-03-30T04:15:12.343Z,94239.00
2023-03-30T04:16:09.064Z,94161.84
2023-03-30T04:17:06.510Z,94216.69
2023-03-30T04:18:05.433Z,94232.25
2023-03-30T04:19:02.153Z,94171.25
2023-03-30T04:19:59.175Z,94220.09
2023-03-30T04:20:57.077Z,94227.34
2023-03-30T04:21:55.680Z,94220.38
2023-03-30T04:22:53.705Z,94232.72
2023-03-30T04:23:50.306Z,94232.28
2023-03-30T04:24:46.937Z,94219.13
2023-03-30T04:25:43.712Z,94213.84
2023-03-30T04:26:41.677Z,94223.75
2023-03-30T04:27:38.690Z,94229.13
2023-03-30T04:28:35.775Z,94227.00
2023-03-30T04:29:32.822Z,94218.06
2023-03-30T04:30:30.591Z,94226.28
2023-03-30T04:31:34.801Z,94224.03
2023-03-30T04:32:34.903Z,94217.44
2023-03-30T04:33:35.340Z,94222.78
2023-03-30T04:34:31.901Z,94230.03
2023-03-30T04:35:32.878Z,94234.22
2023-03-30T04:36:29.657Z,94229.78
2023-03-30T04:37:31.396Z,94232.47
2023-03-30T04:38:28.160Z,94241.09
2023-03-30T04:39:24.993Z,94208.31
2023-03-30T04:40:21.811Z,94249.00
2023-03-30T04:41:18.412Z,94262.97
2023-03-30T04:42:15.669Z,94238.00
2023-03-30T04:43:14.148Z,94235.97
2023-03-30T04:44:11.146Z,94221.63
2023-03-30T04:45:08.754Z,94240.31
2023-03-30T04:46:05.536Z,94208.84
2023-03-30T04:47:02.097Z,94238.72
2023-03-30T04:47:58.978Z,94235.72
2023-03-30T04:48:55.758Z,94248.34
2023-03-30T04:49:52.369Z,94241.09
2023-03-30T04:50:50.957Z,94256.56
2023-03-30T04:51:47.642Z,94245.75
2023-03-30T04:52:44.350Z,94235.50
2023-03-30T04:53:41.005Z,94250.75
2023-03-30T04:54:37.619Z,94249.97
2023-03-30T04:55:34.184Z,94255.84
2023-03-30T04:56:30.939Z,94252.88
2023-03-30T04:57:27.596Z,94257.69
2023-03-30T04:58:24.265Z,94254.09
2023-03-30T04:59:20.810Z,94257.25
2023-03-30T05:00:18.096Z,94265.09
2023-03-30T05:01:14.772Z,94258.53
2023-03-30T05:02:13.041Z,94203.81
2023-03-30T05:03:09.818Z,94268.56
2023-03-30T05:04:07.385Z,94191.19
2023-03-30T05:05:04.402Z,94270.69
2023-03-30T05:06:01.014Z,94280.16
2023-03-30T05:06:57.846Z,94269.59
2023-03-30T05:07:54.546Z,94266.94
2023-03-30T05:08:51.626Z,94234.56
2023-03-30T05:09:48.461Z,94259.09
2023-03-30T05:10:45.037Z,94272.44
2023-03-30T05:11:41.741Z,94265.53
2023-03-30T05:12:38.332Z,94268.47
2023-03-30T05:13:35.067Z,94270.59
2023-03-30T05:14:31.728Z,94273.66
2023-03-30T05:15:28.454Z,94270.59
2023-03-30T05:16:25.072Z,94276.31
2023-03-30T05:17:21.693Z,94265.59
2023-03-30T05:18:18.336Z,94265.38
2023-03-30T05:19:15.266Z,94268.16
2023-03-30T05:20:11.868Z,94264.91
2023-03-30T05:21:08.603Z,94270.13
2023-03-30T05:22:05.292Z,94251.97
2023-03-30T05:23:01.888Z,94270.25
2023-03-30T05:23:58.496Z,94261.91
2023-03-30T05:24:55.067Z,94264.97
2023-03-30T05:25:51.999Z,94260.91
2023-03-30T05:26:48.636Z,94262.09
2023-03-30T05:27:45.511Z,94267.94
2023-03-30T05:28:43.205Z,94264.06
2023-03-30T05:29:39.931Z,94266.38
2023-03-30T05:30:36.562Z,94260.84
2023-03-30T05:31:33.302Z,94257.41
2023-03-30T05:32:30.086Z,94255.09
2023-03-30T05:33:27.199Z,94261.72
2023-03-30T05:34:23.835Z,94249.66
2023-03-30T05:35:20.568Z,94249.91
2023-03-30T05:36:17.704Z,94251.84
2023-03-30T05:37:15.210Z,94252.63
2023-03-30T05:38:11.805Z,94251.28
2023-03-30T05:39:09.124Z,94248.13
2023-03-30T05:40:09.519Z,94254.19
2023-03-30T05:41:06.800Z,94206.53
2023-03-30T05:42:03.994Z,94260.56
2023-03-30T05:43:01.094Z,94253.28
2023-03-30T05:43:57.777Z,94242.91
2023-03-30T05:44:54.420Z,94267.88
2023-03-30T05:45:51.192Z,94267.25
2023-03-30T05:46:47.900Z,94241.53
2023-03-30T05:47:44.515Z,94267.47
2023-03-30T05:48:41.446Z,94268.53
2023-03-30T05:49:38.197Z,94270.75
2023-03-30T05:50:34.975Z,94264.69
2023-03-30T05:51:31.708Z,94275.59
2023-03-30T05:52:28.594Z,94276.66
2023-03-30T05:53:25.259Z,94276.81
2023-03-30T05:54:21.973Z,94271.31
2023-03-30T05:55:18.879Z,94278.66
2023-03-30T05:56:15.769Z,94282.16
2023-03-30T05:57:12.393Z,94273.75
2023-03-30T05:58:09.299Z,94277.94
2023-03-30T05:59:05.860Z,94271.97
2023-03-30T06:00:04.068Z,94271.69
2023-03-30T06:01:00.808Z,94271.47
2023-03-30T06:01:57.448Z,94271.44
2023-03-30T06:02:54.471Z,94276.75
2023-03-30T06:03:51.459Z,94274.13
2023-03-30T06:04:48.625Z,94281.06
2023-03-30T06:05:46.171Z,94283.22
2023-03-30T06:06:42.829Z,94293.25
2023-03-30T06:07:39.590Z,94288.69
2023-03-30T06:08:36.401Z,94293.50
2023-03-30T06:09:33.025Z,94288.78
2023-03-30T06:10:29.601Z,94285.00
2023-03-30T06:11:26.351Z,94262.94
2023-03-30T06:12:22.957Z,94285.38
2023-03-30T06:13:19.753Z,94280.19
2023-03-30T06:14:16.469Z,94281.59
2023-03-30T06:15:13.181Z,94290.72
2023-03-30T06:16:09.911Z,94290.06
2023-03-30T06:17:07.709Z,94290.53
2023-03-30T06:18:04.598Z,94276.56
2023-03-30T06:19:01.476Z,94288.72
2023-03-30T06:19:58.106Z,94234.13
2023-03-30T06:20:54.844Z,94285.91
2023-03-30T06:21:51.451Z,94236.84
2023-03-30T06:22:48.690Z,94226.06
2023-03-30T06:23:45.276Z,94282.97
2023-03-30T06:24:41.871Z,94286.13
2023-03-30T06:25:38.701Z,94293.34
2023-03-30T06:26:35.378Z,94290.13
2023-03-30T06:27:33.013Z,94296.88
2023-03-30T06:28:29.753Z,94260.56
2023-03-30T06:29:27.215Z,94267.00
2023-03-30T06:30:24.079Z,94260.38
2023-03-30T06:31:20.879Z,94247.47
2023-03-30T06:32:17.780Z,94293.53
2023-03-30T06:33:16.427Z,94301.13
2023-03-30T06:34:13.144Z,94296.72
2023-03-30T06:35:10.085Z,94310.31
2023-03-30T06:36:11.084Z,94300.75
2023-03-30T06:37:08.910Z,94294.00
2023-03-30T06:38:05.538Z,94297.09
2023-03-30T06:39:06.525Z,94287.09
2023-03-30T06:40:13.294Z,94302.56
2023-03-30T06:41:12.004Z,94267.22
2023-03-30T06:42:08.687Z,94314.44
2023-03-30T06:43:06.754Z,94289.75
2023-03-30T06:44:03.539Z,94309.16
2023-03-30T06:45:00.192Z,94309.88
2023-03-30T06:45:57.398Z,94205.97
2023-03-30T06:46:54.024Z,94308.59
2023-03-30T06:47:50.823Z,94312.81
2023-03-30T06:48:47.873Z,94281.78
2023-03-30T06:49:44.525Z,94314.84
2023-03-30T06:50:41.138Z,94313.41
2023-03-30T06:51:37.849Z,94311.84
2023-03-30T06:52:35.637Z,94310.19
2023-03-30T06:53:32.538Z,94316.25
2023-03-30T06:54:29.054Z,94311.84
2023-03-30T06:55:25.776Z,94319.84
2023-03-30T06:56:22.659Z,94309.88
2023-03-30T06:57:19.468Z,94321.34
2023-03-30T06:58:16.429Z,94293.00
2023-03-30T06:59:13.456Z,94317.53
2023-03-30T07:00:13.552Z,94314.00
2023-03-30T07:01:16.045Z,94313.31
2023-03-30T07:02:14.192Z,94317.44
2023-03-30T07:03:10.882Z,94315.19
2023-03-30T07:04:08.420Z,94321.56
2023-03-30T07:05:06.972Z,94325.09
2023-03-30T07:06:04.286Z,94269.56
2023-03-30T07:07:00.968Z,94314.03
2023-03-30T07:07:57.671Z,94314.09
2023-03-30T07:08:54.273Z,94319.78
2023-03-30T07:09:51.059Z,94317.44
2023-03-30T07:10:51.226Z,94315.88
2023-03-30T07:11:47.962Z,94321.22
2023-03-30T07:12:44.566Z,94319.47
2023-03-30T07:13:41.219Z,94288.69
2023-03-30T07:14:37.898Z,94320.97
2023-03-30T07:15:34.617Z,94313.81
2023-03-30T07:16:31.726Z,94316.97
2023-03-30T07:17:28.389Z,94307.34
2023-03-30T07:18:25.492Z,94321.75
2023-03-30T07:19:22.126Z,94315.84
2023-03-30T07:20:20.440Z,94293.25
2023-03-30T07:21:17.055Z,94328.41
2023-03-30T07:22:13.633Z,94316.97
2023-03-30T07:23:11.677Z,94311.97
2023-03-30T07:24:08.491Z,94323.41
2023-03-30T07:25:05.700Z,94312.91
2023-03-30T07:26:03.034Z,94321.53
2023-03-30T07:26:59.981Z,94313.69
2023-03-30T07:27:56.627Z,94314.50
2023-03-30T07:28:53.240Z,94288.59
2023-03-30T07:29:50.989Z,94309.06
2023-03-30T07:30:47.762Z,94311.66
2023-03-30T07:31:44.478Z,94311.47
2023-03-30T07:32:41.451Z,94311.97
2023-03-30T07:33:38.245Z,94294.91
2023-03-30T07:34:35.021Z,94309.22
2023-03-30T07:35:32.274Z,94316.22
2023-03-30T07:36:28.976Z,94320.53
2023-03-30T07:37:25.617Z,94321.66
2023-03-30T07:38:22.228Z,94314.56
2023-03-30T07:39:18.946Z,94312.38
2023-03-30T07:40:15.686Z,94319.75
2023-03-30T07:41:15.670Z,94316.41
2023-03-30T07:42:12.306Z,94318.75
2023-03-30T07:43:08.966Z,94316.38
2023-03-30T07:44:05.891Z,94313.19
2023-03-30T07:45:03.946Z,94320.63
2023-03-30T07:46:00.599Z,94320.38
2023-03-30T07:47:01.701Z,94320.06
2023-03-30T07:47:58.444Z,94325.38
2023-03-30T07:48:55.064Z,94322.22
2023-03-30T07:49:52.076Z,94324.44
2023-03-30T07:50:48.778Z,94320.44
2023-03-30T07:51:45.429Z,94316.47
2023-03-30T07:52:42.082Z,94295.38
2023-03-30T07:53:39.547Z,94263.53
2023-03-30T07:54:36.321Z,94313.31
2023-03-30T07:55:33.169Z,94308.03
2023-03-30T07:56:29.832Z,94323.06
2023-03-30T07:57:26.524Z,94332.53
2023-03-30T07:58:23.774Z,94274.19
2023-03-30T07:59:22.002Z,94327.22
2023-03-30T08:00:20.819Z,94323.13
2023-03-30T08:01:17.743Z,94324.44
2023-03-30T08:02:15.281Z,94323.66
2023-03-30T08:03:12.163Z,94317.22
2023-03-30T08:04:09.032Z,94322.59
2023-03-30T08:05:06.397Z,94317.88
2023-03-30T08:06:06.932Z,94315.25
2023-03-30T08:07:04.240Z,94317.78
2023-03-30T08:08:01.176Z,94269.06
2023-03-30T08:08:57.870Z,94315.81
2023-03-30T08:09:54.699Z,94320.19
2023-03-30T08:10:51.445Z,94322.06
2023-03-30T08:11:48.030Z,94315.72
2023-03-30T08:12:44.698Z,94263.72
2023-03-30T08:13:41.530Z,94322.53
2023-03-30T08:14:38.202Z,94324.19
2023-03-30T08:15:34.866Z,94316.63
2023-03-30T08:16:31.936Z,94318.69
2023-03-30T08:17:28.746Z,94298.75
2023-03-30T08:18:27.217Z,94304.00
2023-03-30T08:19:25.847Z,94319.25
2023-03-30T08:20:22.645Z,94321.53
2023-03-30T08:21:19.517Z,94282.97
2023-03-30T08:22:16.321Z,94318.13
2023-03-30T08:23:13.728Z,94314.19
2023-03-30T08:24:10.394Z,94299.84
2023-03-30T08:25:07.607Z,94308.94
2023-03-30T08:26:04.476Z,94312.22
2023-03-30T08:27:01.659Z,94306.44
2023-03-30T08:27:58.354Z,94312.69
2023-03-30T08:28:55.362Z,94310.03
2023-03-30T08:29:54.312Z,94318.00
2023-03-30T08:30:51.507Z,94310.38
2023-03-30T08:31:48.217Z,94313.94
2023-03-30T08:32:45.381Z,94312.00
2023-03-30T08:33:42.002Z,94312.00
2023-03-30T08:34:39.405Z,94309.56
2023-03-30T08:35:36.231Z,94310.16
2023-03-30T08:36:33.133Z,94309.56
2023-03-30T08:37:29.788Z,94315.16
2023-03-30T08:38:26.737Z,94302.53
2023-03-30T08:39:23.532Z,94310.50
2023-03-30T08:40:20.561Z,94314.41
2023-03-30T08:41:29.321Z,94311.25
2023-03-30T08:42:46.588Z,94306.25
2023-03-30T08:43:55.784Z,94319.38
2023-03-30T08:44:56.548Z,94325.78
2023-03-30T08:45:53.195Z,94310.59
2023-03-30T08:46:51.990Z,94325.00
2023-03-30T08:47:52.659Z,94315.41
2023-03-30T08:48:51.854Z,94314.31
2023-03-30T08:50:16.512Z,94311.88
2023-03-30T08:51:28.203Z,94317.78
2023-03-30T08:52:25.502Z,94314.03
2023-03-30T08:53:22.241Z,94279.59
2023-03-30T08:54:21.182Z,94278.63
2023-03-30T08:55:29.402Z,94306.22
2023-03-30T08:56:39.731Z,94305.66
2023-03-30T08:57:54.743Z,94293.28
2023-03-30T08:58:54.361Z,94309.50
2023-03-30T09:00:12.508Z,94301.50
2023-03-30T09:01:28.690Z,94305.16
2023-03-30T09:02:32.594Z,94302.41
2023-03-30T09:03:59.239Z,94300.34
2023-03-30T09:05:02.290Z,94302.41
2023-03-30T09:06:11.430Z,94300.22
2023-03-30T09:07:19.603Z,94252.44
2023-03-30T09:08:29.334Z,94287.31
2023-03-30T09:09:30.164Z,94291.09
2023-03-30T09:10:30.795Z,94257.19
2023-03-30T09:11:34.726Z,94284.59
2023-03-30T09:12:46.401Z,94285.03
2023-03-30T09:13:46.452Z,94278.16
2023-03-30T09:14:50.392Z,94282.41
2023-03-30T09:15:57.752Z,94195.09
2023-03-30T09:17:07.600Z,94279.88
2023-03-30T09:18:36.002Z,94285.31
2023-03-30T09:19:47.679Z,94279.00
2023-03-30T09:20:46.548Z,94277.94
2023-03-30T09:21:43.418Z,94274.00
2023-03-30T09:22:42.851Z,94278.44
2023-03-30T09:23:40.287Z,94220.97
2023-03-30T09:24:37.357Z,94267.19
2023-03-30T09:25:54.285Z,94269.84
2023-03-30T09:27:16.363Z,94270.75
2023-03-30T09:28:26.454Z,94267.53
2023-03-30T09:29:28.459Z,94258.22
2023-03-30T09:30:53.104Z,94261.06
2023-03-30T09:32:01.928Z,94260.59
2023-03-30T09:33:03.650Z,94220.28
2023-03-30T09:34:14.156Z,94259.84
2023-03-30T09:35:16.769Z,94253.84
2023-03-30T09:36:21.435Z,94259.22
2023-03-30T09:37:22.466Z,94256.97
2023-03-30T09:38:21.592Z,94247.41
2023-03-30T09:39:22.157Z,94255.16
2023-03-30T09:40:31.608Z,94252.84
2023-03-30T09:41:46.290Z,94249.28
2023-03-30T09:43:08.477Z,94244.22
2023-03-30T09:44:16.571Z,94242.41
2023-03-30T09:45:44.885Z,94243.25
2023-03-30T09:46:41.663Z,94238.34
2023-03-30T09:47:39.601Z,94242.19
2023-03-30T09:48:47.455Z,94231.84
2023-03-30T09:49:44.153Z,94234.59
2023-03-30T09:50:44.254Z,94231.78
2023-03-30T09:51:56.965Z,94241.75
2023-03-30T09:53:01.501Z,94242.56
2023-03-30T09:54:02.022Z,94242.56
2023-03-30T09:55:18.200Z,94241.75
2023-03-30T09:56:28.669Z,94244.63
2023-03-30T09:57:31.347Z,94247.41
2023-03-30T09:58:33.771Z,94248.56
2023-03-30T09:59:31.873Z,94244.31
2023-03-30T10:00:29.389Z,94251.25
2023-03-30T10:01:38.265Z,94244.03
2023-03-30T10:02:35.255Z,94240.53
2023-03-30T10:03:32.867Z,94244.81
2023-03-30T10:04:29.711Z,94245.28
2023-03-30T10:05:27.568Z,94243.22
2023-03-30T10:06:24.834Z,94239.69
2023-03-30T10:07:38.777Z,94241.16
2023-03-30T10:08:44.141Z,94214.38
2023-03-30T10:09:44.753Z,94235.91
2023-03-30T10:10:42.359Z,94234.34
2023-03-30T10:11:49.654Z,94231.56
2023-03-30T10:12:49.205Z,94229.25
2023-03-30T10:13:46.250Z,94221.72
2023-03-30T10:14:43.441Z,94234.34
2023-03-30T10:15:44.391Z,94226.78
2023-03-30T10:16:44.172Z,94224.38
2023-03-30T10:17:41.621Z,94220.19
2023-03-30T10:18:42.110Z,94218.06
2023-03-30T10:19:45.938Z,94167.06
2023-03-30T10:20:53.026Z,94222.81
2023-03-30T10:21:55.166Z,94172.75
2023-03-30T10:22:56.962Z,94212.78
2023-03-30T10:24:08.602Z,94220.84
2023-03-30T10:25:10.370Z,94214.28
2023-03-30T10:26:20.634Z,94218.78
2023-03-30T10:27:19.568Z,94211.66
2023-03-30T10:28:21.860Z,94210.66
2023-03-30T10:29:22.887Z,94200.38
2023-03-30T10:30:23.590Z,94217.34
2023-03-30T10:31:21.287Z,94213.72
2023-03-30T10:32:21.574Z,94172.41
2023-03-30T10:33:18.313Z,94218.75
2023-03-30T10:34:23.393Z,94197.56
2023-03-30T10:35:24.405Z,94210.81
2023-03-30T10:36:21.380Z,94208.91
2023-03-30T10:37:30.822Z,94211.81
2023-03-30T10:38:32.572Z,94207.13
2023-03-30T10:39:34.860Z,94207.91
2023-03-30T10:40:37.272Z,94205.88
2023-03-30T10:41:37.688Z,94183.16
2023-03-30T10:42:34.428Z,94200.69
2023-03-30T10:43:32.452Z,94206.66
2023-03-30T10:44:35.921Z,94206.88
2023-03-30T10:45:41.739Z,94199.47
2023-03-30T10:46:38.606Z,94191.13
2023-03-30T10:47:59.447Z,94201.63
2023-03-30T10:49:15.435Z,94203.56
2023-03-30T10:50:27.905Z,94189.75
2023-03-30T10:51:42.857Z,94184.56
2023-03-30T10:53:00.794Z,94195.41
2023-03-30T10:54:20.466Z,94187.13
2023-03-30T10:55:55.939Z,94188.69
2023-03-30T10:56:57.343Z,94177.63
2023-03-30T10:58:31.192Z,94191.09
2023-03-30T11:00:01.766Z,94181.50
2023-03-30T11:01:13.610Z,94181.59
2023-03-30T11:02:19.366Z,94183.84
2023-03-30T11:03:24.970Z,94179.22
2023-03-30T11:04:27.307Z,94183.06
2023-03-30T11:05:35.668Z,94182.44
2023-03-30T11:06:38.511Z,94182.56
2023-03-30T11:08:06.879Z,94177.75
2023-03-30T11:09:09.641Z,94174.66
2023-03-30T11:10:15.710Z,94179.06
2023-03-30T11:11:37.896Z,94175.66
2023-03-30T11:12:41.537Z,94166.53
2023-03-30T11:13:45.336Z,94170.38
2023-03-30T11:14:52.208Z,94168.53
2023-03-30T11:16:09.216Z,94162.44
2023-03-30T11:17:11.878Z,94171.66
2023-03-30T11:18:22.088Z,94136.09
2023-03-30T11:19:42.622Z,94165.72
2023-03-30T11:21:37.708Z,94168.50
2023-03-30T11:22:46.631Z,94166.41
2023-03-30T11:23:54.396Z,94164.66
2023-03-30T11:24:55.261Z,94099.50
2023-03-30T11:26:04.498Z,94162.38
2023-03-30T11:27:14.221Z,94155.75
2023-03-30T11:28:29.037Z,94110.47
2023-03-30T11:29:36.997Z,94151.44
2023-03-30T11:30:35.337Z,94102.41
2023-03-30T11:31:53.515Z,94159.06
2023-03-30T11:33:00.235Z,94155.13
2023-03-30T11:34:11.442Z,94150.75
2023-03-30T11:35:14.569Z,94145.66
2023-03-30T11:36:21.033Z,94103.09
2023-03-30T11:37:33.904Z,94135.47
2023-03-30T11:38:48.065Z,94130.28
2023-03-30T11:40:14.069Z,94133.50
2023-03-30T11:41:16.922Z,94118.84
2023-03-30T11:42:24.013Z,94088.97
2023-03-30T11:43:23.484Z,94105.94
2023-03-30T11:44:20.058Z,94126.97
2023-03-30T11:45:51.946Z,94120.19
2023-03-30T11:46:57.355Z,94123.06
2023-03-30T11:48:15.732Z,94117.66
2023-03-30T11:49:21.282Z,94127.25
2023-03-30T11:50:37.684Z,94118.06
2023-03-30T11:52:01.783Z,94117.53
2023-03-30T11:53:24.428Z,94119.09
2023-03-30T11:54:52.631Z,94112.50
2023-03-30T11:56:38.761Z,94109.53
2023-03-30T11:57:42.929Z,94112.88
2023-03-30T11:58:49.369Z,94105.84
2023-03-30T11:59:51.952Z,94113.00
2023-03-30T12:00:57.544Z,94092.44
2023-03-30T12:02:06.632Z,94102.00
2023-03-30T12:03:15.153Z,94100.38
2023-03-30T12:04:15.970Z,94101.22
2023-03-30T12:05:34.119Z,94100.88
2023-03-30T12:06:33.082Z,94092.91